sensor_id;sensor_type;location;lat;lon;timestamp;temperature;humidity
13694;DHT22;6919;52.344;14.518;2023-04-24T00:02:02;11.60;62.50
13694;DHT22;6919;52.344;14.518;2023-04-24T00:04:30;11.90;71.20
13694;DHT22;6919;52.344;14.518;2023-04-24T00:06:59;11.60;84.30
13694;DHT22;6919;52.344;14.518;2023-04-24T00:09:27;11.60;91.20
13694;DHT22;6919;52.344;14.518;2023-04-24T00:11:55;11.60;95.70
13694;DHT22;6919;52.344;14.518;2023-04-24T00:14:24;11.60;99.90
13694;DHT22;6919;52.344;14.518;2023-04-24T00:16:52;11.60;99.90
13694;DHT22;6919;52.344;14.518;2023-04-24T00:19:22;11.50;99.90
13694;DHT22;6919;52.344;14.518;2023-04-24T00:21:50;11.50;99.90
13694;DHT22;6919;52.344;14.518;2023-04-24T00:24:19;11.50;99.90
13694;DHT22;6919;52.344;14.518;2023-04-24T00:26:48;11.50;99.90
13694;DHT22;6919;52.344;14.518;2023-04-24T00:29:17;11.50;99.90
13694;DHT22;6919;52.344;14.518;2023-04-24T00:31:45;11.60;99.90
13694;DHT22;6919;52.344;14.518;2023-04-24T00:34:13;11.60;99.90
13694;DHT22;6919;52.344;14.518;2023-04-24T00:36:43;11.60;99.90
13694;DHT22;6919;52.344;14.518;2023-04-24T00:39:11;11.60;99.90
13694;DHT22;6919;52.344;14.518;2023-04-24T00:41:40;11.60;99.90
13694;DHT22;6919;52.344;14.518;2023-04-24T00:44:08;11.70;99.90
13694;DHT22;6919;52.344;14.518;2023-04-24T00:46:36;11.90;99.90
13694;DHT22;6919;52.344;14.518;2023-04-24T00:49:05;11.80;99.90
13694;DHT22;6919;52.344;14.518;2023-04-24T00:51:34;11.70;99.90
13694;DHT22;6919;52.344;14.518;2023-04-24T00:54:04;11.70;99.90
13694;DHT22;6919;52.344;14.518;2023-04-24T00:56:33;11.70;99.90
13694;DHT22;6919;52.344;14.518;2023-04-24T00:59:01;11.70;99.90
13694;DHT22;6919;52.344;14.518;2023-04-24T01:01:29;11.60;99.90
13694;DHT22;6919;52.344;14.518;2023-04-24T01:03:59;11.60;99.90
13694;DHT22;6919;52.344;14.518;2023-04-24T01:06:29;11.60;99.90
13694;DHT22;6919;52.344;14.518;2023-04-24T01:08:58;11.50;99.90
13694;DHT22;6919;52.344;14.518;2023-04-24T01:11:30;11.60;99.90
13694;DHT22;6919;52.344;14.518;2023-04-24T01:13:58;11.60;99.90
13694;DHT22;6919;52.344;14.518;2023-04-24T01:16:28;11.50;99.90
13694;DHT22;6919;52.344;14.518;2023-04-24T01:18:57;11.50;99.90
13694;DHT22;6919;52.344;14.518;2023-04-24T01:21:27;11.40;99.90
13694;DHT22;6919;52.344;14.518;2023-04-24T01:23:59;11.40;99.90
13694;DHT22;6919;52.344;14.518;2023-04-24T01:26:27;11.30;99.90
13694;DHT22;6919;52.344;14.518;2023-04-24T01:28:56;11.30;99.90
13694;DHT22;6919;52.344;14.518;2023-04-24T01:31:24;11.20;99.90
13694;DHT22;6919;52.344;14.518;2023-04-24T01:33:54;11.30;99.90
13694;DHT22;6919;52.344;14.518;2023-04-24T01:36:24;11.30;99.90
13694;DHT22;6919;52.344;14.518;2023-04-24T01:38:54;11.20;99.90
13694;DHT22;6919;52.344;14.518;2023-04-24T01:41:25;11.20;99.90
13694;DHT22;6919;52.344;14.518;2023-04-24T01:43:53;11.10;99.90
13694;DHT22;6919;52.344;14.518;2023-04-24T01:46:22;11.10;99.90
13694;DHT22;6919;52.344;14.518;2023-04-24T01:48:52;11.10;99.90
13694;DHT22;6919;52.344;14.518;2023-04-24T01:51:21;11.00;99.90
13694;DHT22;6919;52.344;14.518;2023-04-24T01:53:49;11.00;99.90
13694;DHT22;6919;52.344;14.518;2023-04-24T01:56:19;10.90;99.90
13694;DHT22;6919;52.344;14.518;2023-04-24T01:58:49;10.90;99.90
13694;DHT22;6919;52.344;14.518;2023-04-24T02:01:20;11.00;99.90
13694;DHT22;6919;52.344;14.518;2023-04-24T02:03:49;11.00;99.90
13694;DHT22;6919;52.344;14.518;2023-04-24T02:06:18;11.00;99.90
13694;DHT22;6919;52.344;14.518;2023-04-24T02:08:46;11.00;99.90
13694;DHT22;6919;52.344;14.518;2023-04-24T02:11:14;10.90;99.90
13694;DHT22;6919;52.344;14.518;2023-04-24T02:13:42;10.80;99.90
13694;DHT22;6919;52.344;14.518;2023-04-24T02:16:12;11.00;99.90
13694;DHT22;6919;52.344;14.518;2023-04-24T02:18:40;11.20;99.90
13694;DHT22;6919;52.344;14.518;2023-04-24T02:21:09;11.40;99.90
13694;DHT22;6919;52.344;14.518;2023-04-24T02:23:37;11.20;99.90
13694;DHT22;6919;52.344;14.518;2023-04-24T02:26:06;11.20;99.90
13694;DHT22;6919;52.344;14.518;2023-04-24T02:28:34;11.00;99.90
13694;DHT22;6919;52.344;14.518;2023-04-24T02:31:02;10.90;99.90
13694;DHT22;6919;52.344;14.518;2023-04-24T02:33:33;10.80;99.90
13694;DHT22;6919;52.344;14.518;2023-04-24T02:36:02;10.80;99.90
13694;DHT22;6919;52.344;14.518;2023-04-24T02:38:30;10.80;99.90
13694;DHT22;6919;52.344;14.518;2023-04-24T02:40:59;10.90;99.90
13694;DHT22;6919;52.344;14.518;2023-04-24T02:43:28;10.80;99.90
13694;DHT22;6919;52.344;14.518;2023-04-24T02:45:56;10.70;99.90
13694;DHT22;6919;52.344;14.518;2023-04-24T02:48:25;10.70;99.90
13694;DHT22;6919;52.344;14.518;2023-04-24T02:50:55;10.80;99.90
13694;DHT22;6919;52.344;14.518;2023-04-24T02:53:24;10.80;99.90
13694;DHT22;6919;52.344;14.518;2023-04-24T02:55:52;10.70;99.90
13694;DHT22;6919;52.344;14.518;2023-04-24T02:58:20;10.70;99.90
13694;DHT22;6919;52.344;14.518;2023-04-24T03:00:49;10.80;99.90
13694;DHT22;6919;52.344;14.518;2023-04-24T03:03:21;10.80;99.90
13694;DHT22;6919;52.344;14.518;2023-04-24T03:05:50;10.70;99.90
13694;DHT22;6919;52.344;14.518;2023-04-24T03:08:20;10.60;99.90
13694;DHT22;6919;52.344;14.518;2023-04-24T03:10:49;10.70;99.90
13694;DHT22;6919;52.344;14.518;2023-04-24T03:13:17;10.80;99.90
13694;DHT22;6919;52.344;14.518;2023-04-24T03:15:45;10.60;99.90
13694;DHT22;6919;52.344;14.518;2023-04-24T03:18:14;10.50;99.90
13694;DHT22;6919;52.344;14.518;2023-04-24T03:20:42;10.80;99.90
13694;DHT22;6919;52.344;14.518;2023-04-24T03:23:13;10.70;99.90
13694;DHT22;6919;52.344;14.518;2023-04-24T03:25:43;10.60;99.90
13694;DHT22;6919;52.344;14.518;2023-04-24T03:28:11;10.70;99.90
13694;DHT22;6919;52.344;14.518;2023-04-24T03:30:40;10.70;99.90
13694;DHT22;6919;52.344;14.518;2023-04-24T03:33:08;10.40;99.90
13694;DHT22;6919;52.344;14.518;2023-04-24T03:35:37;10.40;99.90
13694;DHT22;6919;52.344;14.518;2023-04-24T03:38:05;10.30;99.90
13694;DHT22;6919;52.344;14.518;2023-04-24T03:40:34;10.30;99.90
13694;DHT22;6919;52.344;14.518;2023-04-24T03:43:03;10.20;99.90
13694;DHT22;6919;52.344;14.518;2023-04-24T03:45:32;10.20;99.90
13694;DHT22;6919;52.344;14.518;2023-04-24T03:48:00;10.10;99.90
13694;DHT22;6919;52.344;14.518;2023-04-24T03:50:28;10.10;99.90
13694;DHT22;6919;52.344;14.518;2023-04-24T03:52:57;10.00;99.90
13694;DHT22;6919;52.344;14.518;2023-04-24T03:55:25;10.00;99.90
13694;DHT22;6919;52.344;14.518;2023-04-24T03:57:53;10.00;99.90
13694;DHT22;6919;52.344;14.518;2023-04-24T04:00:23;10.00;99.90
13694;DHT22;6919;52.344;14.518;2023-04-24T04:02:52;10.00;99.90
13694;DHT22;6919;52.344;14.518;2023-04-24T04:05:22;10.30;99.90
13694;DHT22;6919;52.344;14.518;2023-04-24T04:07:50;10.20;99.90
13694;DHT22;6919;52.344;14.518;2023-04-24T04:10:19;10.20;99.90
13694;DHT22;6919;52.344;14.518;2023-04-24T04:12:47;10.30;99.90
13694;DHT22;6919;52.344;14.518;2023-04-24T04:15:16;10.50;99.90
13694;DHT22;6919;52.344;14.518;2023-04-24T04:17:45;10.80;99.90
13694;DHT22;6919;52.344;14.518;2023-04-24T04:20:14;10.90;99.90
13694;DHT22;6919;52.344;14.518;2023-04-24T04:22:42;10.70;99.90
13694;DHT22;6919;52.344;14.518;2023-04-24T04:25:11;10.80;99.90
13694;DHT22;6919;52.344;14.518;2023-04-24T04:27:39;10.80;99.90
13694;DHT22;6919;52.344;14.518;2023-04-24T04:30:08;10.90;99.90
13694;DHT22;6919;52.344;14.518;2023-04-24T04:32:37;11.00;99.90
13694;DHT22;6919;52.344;14.518;2023-04-24T04:35:07;11.10;99.90
13694;DHT22;6919;52.344;14.518;2023-04-24T04:37:36;11.40;99.90
13694;DHT22;6919;52.344;14.518;2023-04-24T04:40:05;11.40;99.90
13694;DHT22;6919;52.344;14.518;2023-04-24T04:42:38;11.50;99.90
13694;DHT22;6919;52.344;14.518;2023-04-24T04:45:08;11.60;99.90
13694;DHT22;6919;52.344;14.518;2023-04-24T04:47:38;11.90;99.90
13694;DHT22;6919;52.344;14.518;2023-04-24T04:50:09;11.80;70.80
13694;DHT22;6919;52.344;14.518;2023-04-24T04:52:38;12.00;54.60
13694;DHT22;6919;52.344;14.518;2023-04-24T04:55:07;12.10;13.10
13694;DHT22;6919;52.344;14.518;2023-04-24T04:57:35;12.30;9.40
13694;DHT22;6919;52.344;14.518;2023-04-24T05:00:05;12.40;1.00
13694;DHT22;6919;52.344;14.518;2023-04-24T05:02:37;12.50;1.00
13694;DHT22;6919;52.344;14.518;2023-04-24T05:05:08;12.40;1.00
13694;DHT22;6919;52.344;14.518;2023-04-24T05:07:38;12.50;1.00
13694;DHT22;6919;52.344;14.518;2023-04-24T05:10:08;12.30;1.00
13694;DHT22;6919;52.344;14.518;2023-04-24T05:12:37;12.50;1.00
13694;DHT22;6919;52.344;14.518;2023-04-24T05:15:06;12.50;1.00
13694;DHT22;6919;52.344;14.518;2023-04-24T05:17:35;12.70;1.00
13694;DHT22;6919;52.344;14.518;2023-04-24T05:20:08;12.80;1.00
13694;DHT22;6919;52.344;14.518;2023-04-24T05:22:37;12.70;1.00
13694;DHT22;6919;52.344;14.518;2023-04-24T05:25:06;12.80;1.00
13694;DHT22;6919;52.344;14.518;2023-04-24T05:27:35;12.70;1.00
13694;DHT22;6919;52.344;14.518;2023-04-24T05:30:05;12.70;1.00
13694;DHT22;6919;52.344;14.518;2023-04-24T05:32:34;12.90;1.00
13694;DHT22;6919;52.344;14.518;2023-04-24T05:35:04;12.90;1.00
13694;DHT22;6919;52.344;14.518;2023-04-24T05:37:34;12.80;1.00
13694;DHT22;6919;52.344;14.518;2023-04-24T05:40:03;12.90;1.00
13694;DHT22;6919;52.344;14.518;2023-04-24T05:42:32;12.90;1.00
13694;DHT22;6919;52.344;14.518;2023-04-24T05:45:00;12.90;1.00
13694;DHT22;6919;52.344;14.518;2023-04-24T05:47:29;12.80;1.00
13694;DHT22;6919;52.344;14.518;2023-04-24T05:49:57;13.00;1.00
13694;DHT22;6919;52.344;14.518;2023-04-24T05:52:25;13.00;1.00
13694;DHT22;6919;52.344;14.518;2023-04-24T05:54:55;13.10;1.00
13694;DHT22;6919;52.344;14.518;2023-04-24T05:57:23;13.10;1.00
13694;DHT22;6919;52.344;14.518;2023-04-24T05:59:52;13.20;1.00
13694;DHT22;6919;52.344;14.518;2023-04-24T06:02:21;13.30;1.00
13694;DHT22;6919;52.344;14.518;2023-04-24T06:04:50;13.10;1.00
13694;DHT22;6919;52.344;14.518;2023-04-24T06:07:18;13.30;1.00
13694;DHT22;6919;52.344;14.518;2023-04-24T06:09:47;13.40;1.00
13694;DHT22;6919;52.344;14.518;2023-04-24T06:12:16;13.40;1.00
13694;DHT22;6919;52.344;14.518;2023-04-24T06:14:44;13.40;99.90
13694;DHT22;6919;52.344;14.518;2023-04-24T06:17:13;13.40;99.90
13694;DHT22;6919;52.344;14.518;2023-04-24T06:19:41;13.50;99.90
13694;DHT22;6919;52.344;14.518;2023-04-24T06:22:10;13.60;27.30
13694;DHT22;6919;52.344;14.518;2023-04-24T06:24:39;13.70;1.00
13694;DHT22;6919;52.344;14.518;2023-04-24T06:27:07;13.80;99.90
13694;DHT22;6919;52.344;14.518;2023-04-24T06:29:37;13.90;1.00
13694;DHT22;6919;52.344;14.518;2023-04-24T06:32:05;13.90;1.00
13694;DHT22;6919;52.344;14.518;2023-04-24T06:34:34;13.80;99.90
13694;DHT22;6919;52.344;14.518;2023-04-24T06:37:03;14.00;99.90
13694;DHT22;6919;52.344;14.518;2023-04-24T06:39:34;13.90;1.00
13694;DHT22;6919;52.344;14.518;2023-04-24T06:42:02;13.80;1.00
13694;DHT22;6919;52.344;14.518;2023-04-24T06:44:30;14.00;1.00
13694;DHT22;6919;52.344;14.518;2023-04-24T06:47:00;14.10;52.00
13694;DHT22;6919;52.344;14.518;2023-04-24T06:49:28;14.00;1.00
13694;DHT22;6919;52.344;14.518;2023-04-24T06:51:56;14.00;99.90
13694;DHT22;6919;52.344;14.518;2023-04-24T06:54:25;14.10;1.00
13694;DHT22;6919;52.344;14.518;2023-04-24T06:56:53;14.00;1.00
13694;DHT22;6919;52.344;14.518;2023-04-24T06:59:22;13.90;1.00
13694;DHT22;6919;52.344;14.518;2023-04-24T07:01:50;14.20;1.00
13694;DHT22;6919;52.344;14.518;2023-04-24T07:04:22;14.30;1.00
13694;DHT22;6919;52.344;14.518;2023-04-24T07:06:52;14.30;99.90
13694;DHT22;6919;52.344;14.518;2023-04-24T07:09:22;14.30;1.00
13694;DHT22;6919;52.344;14.518;2023-04-24T07:11:54;14.10;99.70
13694;DHT22;6919;52.344;14.518;2023-04-24T07:14:23;14.00;99.90
13694;DHT22;6919;52.344;14.518;2023-04-24T07:16:52;14.30;1.00
13694;DHT22;6919;52.344;14.518;2023-04-24T07:19:22;14.60;1.00
13694;DHT22;6919;52.344;14.518;2023-04-24T07:21:50;14.50;80.70
13694;DHT22;6919;52.344;14.518;2023-04-24T07:24:20;14.40;99.90
13694;DHT22;6919;52.344;14.518;2023-04-24T07:26:52;14.30;1.00
13694;DHT22;6919;52.344;14.518;2023-04-24T07:29:22;14.50;46.70
13694;DHT22;6919;52.344;14.518;2023-04-24T07:31:50;14.30;1.00
13694;DHT22;6919;52.344;14.518;2023-04-24T07:34:19;14.50;1.00
13694;DHT22;6919;52.344;14.518;2023-04-24T07:36:48;14.60;99.90
13694;DHT22;6919;52.344;14.518;2023-04-24T07:39:19;14.80;99.90
13694;DHT22;6919;52.344;14.518;2023-04-24T07:41:47;15.10;94.10
13694;DHT22;6919;52.344;14.518;2023-04-24T07:44:16;15.10;1.00
13694;DHT22;6919;52.344;14.518;2023-04-24T07:46:44;15.00;99.90
13694;DHT22;6919;52.344;14.518;2023-04-24T07:49:12;15.00;99.90
13694;DHT22;6919;52.344;14.518;2023-04-24T07:51:44;15.10;99.90
13694;DHT22;6919;52.344;14.518;2023-04-24T07:54:14;15.10;99.90
13694;DHT22;6919;52.344;14.518;2023-04-24T07:56:43;15.10;99.90
13694;DHT22;6919;52.344;14.518;2023-04-24T07:59:11;15.40;99.90
13694;DHT22;6919;52.344;14.518;2023-04-24T08:01:40;15.80;6.20
13694;DHT22;6919;52.344;14.518;2023-04-24T08:04:08;15.90;1.00
13694;DHT22;6919;52.344;14.518;2023-04-24T08:06:37;15.70;1.00
13694;DHT22;6919;52.344;14.518;2023-04-24T08:09:05;15.90;1.00
13694;DHT22;6919;52.344;14.518;2023-04-24T08:11:35;16.20;1.00
13694;DHT22;6919;52.344;14.518;2023-04-24T08:14:03;16.40;1.00
13694;DHT22;6919;52.344;14.518;2023-04-24T08:16:32;16.70;99.90
13694;DHT22;6919;52.344;14.518;2023-04-24T08:19:01;16.60;1.00
13694;DHT22;6919;52.344;14.518;2023-04-24T08:21:29;16.60;99.90
13694;DHT22;6919;52.344;14.518;2023-04-24T08:23:58;16.70;99.90
13694;DHT22;6919;52.344;14.518;2023-04-24T08:26:27;16.30;99.90
13694;DHT22;6919;52.344;14.518;2023-04-24T08:28:56;16.40;99.90
13694;DHT22;6919;52.344;14.518;2023-04-24T08:31:25;16.50;99.90
13694;DHT22;6919;52.344;14.518;2023-04-24T08:33:53;16.50;99.90
13694;DHT22;6919;52.344;14.518;2023-04-24T08:36:22;16.10;99.90
13694;DHT22;6919;52.344;14.518;2023-04-24T08:38:56;16.20;99.90
13694;DHT22;6919;52.344;14.518;2023-04-24T08:41:24;16.20;99.90
13694;DHT22;6919;52.344;14.518;2023-04-24T08:43:56;16.00;99.90
13694;DHT22;6919;52.344;14.518;2023-04-24T08:46:26;16.20;99.90
13694;DHT22;6919;52.344;14.518;2023-04-24T08:48:56;16.20;99.90
13694;DHT22;6919;52.344;14.518;2023-04-24T08:51:26;16.10;99.90
13694;DHT22;6919;52.344;14.518;2023-04-24T08:53:56;16.10;99.90
13694;DHT22;6919;52.344;14.518;2023-04-24T08:56:25;16.20;99.90
13694;DHT22;6919;52.344;14.518;2023-04-24T08:58:57;16.30;99.90
13694;DHT22;6919;52.344;14.518;2023-04-24T09:01:26;16.20;99.90
13694;DHT22;6919;52.344;14.518;2023-04-24T09:03:56;16.20;99.90
13694;DHT22;6919;52.344;14.518;2023-04-24T09:06:24;16.10;99.90
13694;DHT22;6919;52.344;14.518;2023-04-24T09:08:54;16.10;99.90
13694;DHT22;6919;52.344;14.518;2023-04-24T09:11:24;16.60;99.90
13694;DHT22;6919;52.344;14.518;2023-04-24T09:13:55;17.20;99.90
13694;DHT22;6919;52.344;14.518;2023-04-24T09:16:25;17.40;99.90
13694;DHT22;6919;52.344;14.518;2023-04-24T09:18:54;17.20;99.90
13694;DHT22;6919;52.344;14.518;2023-04-24T09:21:23;16.70;99.90
13694;DHT22;6919;52.344;14.518;2023-04-24T09:23:58;16.90;99.90
13694;DHT22;6919;52.344;14.518;2023-04-24T09:26:29;17.00;99.90
13694;DHT22;6919;52.344;14.518;2023-04-24T09:29:01;17.50;99.90
13694;DHT22;6919;52.344;14.518;2023-04-24T09:31:30;17.70;99.90
13694;DHT22;6919;52.344;14.518;2023-04-24T09:34:02;17.70;99.90
13694;DHT22;6919;52.344;14.518;2023-04-24T09:36:35;17.40;99.90
13694;DHT22;6919;52.344;14.518;2023-04-24T09:39:06;17.30;99.90
13694;DHT22;6919;52.344;14.518;2023-04-24T09:41:44;17.60;99.90
13694;DHT22;6919;52.344;14.518;2023-04-24T09:44:16;17.80;99.90
13694;DHT22;6919;52.344;14.518;2023-04-24T09:46:50;17.40;99.90
13694;DHT22;6919;52.344;14.518;2023-04-24T09:49:23;17.70;99.90
13694;DHT22;6919;52.344;14.518;2023-04-24T09:51:53;17.80;99.90
13694;DHT22;6919;52.344;14.518;2023-04-24T09:54:30;17.60;99.90
13694;DHT22;6919;52.344;14.518;2023-04-24T09:56:59;18.20;99.90
13694;DHT22;6919;52.344;14.518;2023-04-24T09:59:29;18.10;99.90
13694;DHT22;6919;52.344;14.518;2023-04-24T10:01:59;18.00;99.90
13694;DHT22;6919;52.344;14.518;2023-04-24T10:04:28;18.30;99.90
13694;DHT22;6919;52.344;14.518;2023-04-24T10:06:57;18.20;99.90
13694;DHT22;6919;52.344;14.518;2023-04-24T10:09:27;17.80;99.90
13694;DHT22;6919;52.344;14.518;2023-04-24T10:11:55;17.70;99.90
13694;DHT22;6919;52.344;14.518;2023-04-24T10:14:24;17.60;99.90
13694;DHT22;6919;52.344;14.518;2023-04-24T10:16:55;17.90;99.90
13694;DHT22;6919;52.344;14.518;2023-04-24T10:19:25;17.90;99.90
13694;DHT22;6919;52.344;14.518;2023-04-24T10:21:54;18.30;99.90
13694;DHT22;6919;52.344;14.518;2023-04-24T10:24:25;18.30;99.90
13694;DHT22;6919;52.344;14.518;2023-04-24T10:26:53;18.00;99.90
13694;DHT22;6919;52.344;14.518;2023-04-24T10:29:23;17.70;99.90
13694;DHT22;6919;52.344;14.518;2023-04-24T10:31:54;17.40;99.90
13694;DHT22;6919;52.344;14.518;2023-04-24T10:34:23;17.20;99.90
13694;DHT22;6919;52.344;14.518;2023-04-24T10:36:53;17.10;99.90
13694;DHT22;6919;52.344;14.518;2023-04-24T10:39:24;17.10;99.90
13694;DHT22;6919;52.344;14.518;2023-04-24T10:41:54;17.00;99.90
13694;DHT22;6919;52.344;14.518;2023-04-24T10:44:24;16.90;99.90
13694;DHT22;6919;52.344;14.518;2023-04-24T10:46:55;17.10;99.90
13694;DHT22;6919;52.344;14.518;2023-04-24T10:49:28;17.10;99.90
13694;DHT22;6919;52.344;14.518;2023-04-24T10:52:02;17.20;99.90
13694;DHT22;6919;52.344;14.518;2023-04-24T10:54:35;17.10;99.90
13694;DHT22;6919;52.344;14.518;2023-04-24T10:57:27;17.30;99.90
13694;DHT22;6919;52.344;14.518;2023-04-24T11:00:14;17.80;99.90
13694;DHT22;6919;52.344;14.518;2023-04-24T11:02:47;17.70;99.90
13694;DHT22;6919;52.344;14.518;2023-04-24T11:05:18;17.50;99.90
13694;DHT22;6919;52.344;14.518;2023-04-24T11:08:13;17.50;99.90
13694;DHT22;6919;52.344;14.518;2023-04-24T11:10:47;17.50;99.90
13694;DHT22;6919;52.344;14.518;2023-04-24T11:13:23;17.50;99.90
13694;DHT22;6919;52.344;14.518;2023-04-24T11:16:15;17.30;99.90
13694;DHT22;6919;52.344;14.518;2023-04-24T11:18:57;17.20;99.90
13694;DHT22;6919;52.344;14.518;2023-04-24T11:21:31;17.30;99.90
13694;DHT22;6919;52.344;14.518;2023-04-24T11:24:24;17.90;99.90
13694;DHT22;6919;52.344;14.518;2023-04-24T11:27:05;18.30;99.90
13694;DHT22;6919;52.344;14.518;2023-04-24T11:29:42;18.40;99.90
13694;DHT22;6919;52.344;14.518;2023-04-24T11:32:15;18.30;99.90
13694;DHT22;6919;52.344;14.518;2023-04-24T11:34:54;18.50;99.90
13694;DHT22;6919;52.344;14.518;2023-04-24T11:37:26;18.20;99.90
13694;DHT22;6919;52.344;14.518;2023-04-24T11:39:57;17.90;99.90
13694;DHT22;6919;52.344;14.518;2023-04-24T11:42:27;18.00;99.90
13694;DHT22;6919;52.344;14.518;2023-04-24T11:44:56;18.20;99.90
13694;DHT22;6919;52.344;14.518;2023-04-24T11:47:30;18.60;99.90
13694;DHT22;6919;52.344;14.518;2023-04-24T11:50:03;18.80;99.90
13694;DHT22;6919;52.344;14.518;2023-04-24T11:52:33;18.90;99.90
13694;DHT22;6919;52.344;14.518;2023-04-24T11:55:07;18.90;99.90
13694;DHT22;6919;52.344;14.518;2023-04-24T11:57:37;19.10;99.90
13694;DHT22;6919;52.344;14.518;2023-04-24T12:00:06;19.40;99.90
13694;DHT22;6919;52.344;14.518;2023-04-24T12:02:36;19.40;99.90
13694;DHT22;6919;52.344;14.518;2023-04-24T12:05:08;19.40;99.90
13694;DHT22;6919;52.344;14.518;2023-04-24T12:07:41;19.50;99.90
13694;DHT22;6919;52.344;14.518;2023-04-24T12:10:10;19.40;99.90
13694;DHT22;6919;52.344;14.518;2023-04-24T12:12:39;19.00;99.90
13694;DHT22;6919;52.344;14.518;2023-04-24T12:15:08;19.00;99.90
13694;DHT22;6919;52.344;14.518;2023-04-24T12:17:41;18.70;99.90
13694;DHT22;6919;52.344;14.518;2023-04-24T12:20:13;19.20;99.90
13694;DHT22;6919;52.344;14.518;2023-04-24T12:22:46;19.00;99.90
13694;DHT22;6919;52.344;14.518;2023-04-24T12:25:16;18.50;99.90
13694;DHT22;6919;52.344;14.518;2023-04-24T12:27:46;18.40;99.90
13694;DHT22;6919;52.344;14.518;2023-04-24T12:30:27;18.30;99.90
13694;DHT22;6919;52.344;14.518;2023-04-24T12:32:58;18.60;99.90
13694;DHT22;6919;52.344;14.518;2023-04-24T12:35:29;18.70;99.90
13694;DHT22;6919;52.344;14.518;2023-04-24T12:38:06;18.80;99.90
13694;DHT22;6919;52.344;14.518;2023-04-24T12:40:35;18.50;99.90
13694;DHT22;6919;52.344;14.518;2023-04-24T12:43:13;18.60;99.90
13694;DHT22;6919;52.344;14.518;2023-04-24T12:45:43;18.60;99.90
13694;DHT22;6919;52.344;14.518;2023-04-24T12:48:12;18.70;99.90
13694;DHT22;6919;52.344;14.518;2023-04-24T12:50:43;18.90;99.90
13694;DHT22;6919;52.344;14.518;2023-04-24T12:53:13;18.50;99.90
13694;DHT22;6919;52.344;14.518;2023-04-24T12:55:42;18.40;99.90
13694;DHT22;6919;52.344;14.518;2023-04-24T12:58:11;18.60;99.90
13694;DHT22;6919;52.344;14.518;2023-04-24T13:00:40;18.30;99.90
13694;DHT22;6919;52.344;14.518;2023-04-24T13:03:10;18.50;99.90
13694;DHT22;6919;52.344;14.518;2023-04-24T13:05:39;18.70;99.90
13694;DHT22;6919;52.344;14.518;2023-04-24T13:08:09;19.40;99.90
13694;DHT22;6919;52.344;14.518;2023-04-24T13:10:37;20.00;99.90
13694;DHT22;6919;52.344;14.518;2023-04-24T13:13:06;20.10;99.90
13694;DHT22;6919;52.344;14.518;2023-04-24T13:15:35;20.00;99.90
13694;DHT22;6919;52.344;14.518;2023-04-24T13:18:03;20.10;99.90
13694;DHT22;6919;52.344;14.518;2023-04-24T13:20:32;19.70;99.90
13694;DHT22;6919;52.344;14.518;2023-04-24T13:23:02;19.70;99.90
13694;DHT22;6919;52.344;14.518;2023-04-24T13:25:35;19.40;99.90
13694;DHT22;6919;52.344;14.518;2023-04-24T13:28:05;19.00;99.90
13694;DHT22;6919;52.344;14.518;2023-04-24T13:30:34;18.90;99.90
13694;DHT22;6919;52.344;14.518;2023-04-24T13:33:02;18.60;99.90
13694;DHT22;6919;52.344;14.518;2023-04-24T13:35:33;18.80;99.90
13694;DHT22;6919;52.344;14.518;2023-04-24T13:38:07;19.40;99.90
13694;DHT22;6919;52.344;14.518;2023-04-24T13:40:40;19.70;99.90
13694;DHT22;6919;52.344;14.518;2023-04-24T13:43:08;20.00;99.90
13694;DHT22;6919;52.344;14.518;2023-04-24T13:45:36;20.10;99.90
13694;DHT22;6919;52.344;14.518;2023-04-24T13:48:04;20.80;99.90
13694;DHT22;6919;52.344;14.518;2023-04-24T13:50:33;20.60;99.90
13694;DHT22;6919;52.344;14.518;2023-04-24T13:53:02;19.70;99.90
13694;DHT22;6919;52.344;14.518;2023-04-24T13:55:30;19.40;99.90
13694;DHT22;6919;52.344;14.518;2023-04-24T13:58:00;18.60;99.90
13694;DHT22;6919;52.344;14.518;2023-04-24T14:00:28;18.70;99.90
13694;DHT22;6919;52.344;14.518;2023-04-24T14:02:57;18.60;99.90
13694;DHT22;6919;52.344;14.518;2023-04-24T14:05:26;18.40;99.90
13694;DHT22;6919;52.344;14.518;2023-04-24T14:07:54;18.20;99.90
13694;DHT22;6919;52.344;14.518;2023-04-24T14:10:22;17.80;99.90
13694;DHT22;6919;52.344;14.518;2023-04-24T14:12:53;17.70;99.90
13694;DHT22;6919;52.344;14.518;2023-04-24T14:15:23;17.60;99.90
13694;DHT22;6919;52.344;14.518;2023-04-24T14:17:54;17.60;99.90
13694;DHT22;6919;52.344;14.518;2023-04-24T14:20:22;17.50;99.90
13694;DHT22;6919;52.344;14.518;2023-04-24T14:22:52;17.40;99.90
13694;DHT22;6919;52.344;14.518;2023-04-24T14:25:21;17.20;99.90
13694;DHT22;6919;52.344;14.518;2023-04-24T14:27:49;17.10;99.90
13694;DHT22;6919;52.344;14.518;2023-04-24T14:30:18;17.00;99.90
13694;DHT22;6919;52.344;14.518;2023-04-24T14:32:48;17.00;99.90
13694;DHT22;6919;52.344;14.518;2023-04-24T14:35:17;16.90;99.90
13694;DHT22;6919;52.344;14.518;2023-04-24T14:37:45;17.00;99.90
13694;DHT22;6919;52.344;14.518;2023-04-24T14:40:15;17.10;99.90
13694;DHT22;6919;52.344;14.518;2023-04-24T14:43:03;17.20;99.90
13694;DHT22;6919;52.344;14.518;2023-04-24T14:45:32;17.50;99.90
13694;DHT22;6919;52.344;14.518;2023-04-24T14:48:01;17.60;99.90
13694;DHT22;6919;52.344;14.518;2023-04-24T14:50:30;17.40;99.90
13694;DHT22;6919;52.344;14.518;2023-04-24T14:52:58;17.50;99.90
13694;DHT22;6919;52.344;14.518;2023-04-24T14:55:28;17.50;99.90
13694;DHT22;6919;52.344;14.518;2023-04-24T14:57:57;17.20;99.90
13694;DHT22;6919;52.344;14.518;2023-04-24T15:00:25;17.40;99.90
13694;DHT22;6919;52.344;14.518;2023-04-24T15:02:53;17.30;99.90
13694;DHT22;6919;52.344;14.518;2023-04-24T15:05:24;17.30;99.90
13694;DHT22;6919;52.344;14.518;2023-04-24T15:07:52;17.30;99.90
13694;DHT22;6919;52.344;14.518;2023-04-24T15:10:21;17.10;99.90
13694;DHT22;6919;52.344;14.518;2023-04-24T15:12:55;17.40;99.90
13694;DHT22;6919;52.344;14.518;2023-04-24T15:15:23;17.30;99.90
13694;DHT22;6919;52.344;14.518;2023-04-24T15:17:52;17.30;99.90
13694;DHT22;6919;52.344;14.518;2023-04-24T15:20:21;17.30;99.90
13694;DHT22;6919;52.344;14.518;2023-04-24T15:22:50;17.10;99.90
13694;DHT22;6919;52.344;14.518;2023-04-24T15:25:19;17.20;99.90
13694;DHT22;6919;52.344;14.518;2023-04-24T15:27:47;17.30;99.90
13694;DHT22;6919;52.344;14.518;2023-04-24T15:30:16;17.40;99.90
13694;DHT22;6919;52.344;14.518;2023-04-24T15:32:45;17.30;99.90
13694;DHT22;6919;52.344;14.518;2023-04-24T15:35:14;17.40;99.90
13694;DHT22;6919;52.344;14.518;2023-04-24T15:37:44;17.60;99.90
13694;DHT22;6919;52.344;14.518;2023-04-24T15:40:13;17.80;99.90
13694;DHT22;6919;52.344;14.518;2023-04-24T15:42:42;17.50;99.90
13694;DHT22;6919;52.344;14.518;2023-04-24T15:45:11;17.40;99.90
13694;DHT22;6919;52.344;14.518;2023-04-24T15:47:39;17.60;99.90
13694;DHT22;6919;52.344;14.518;2023-04-24T15:50:08;17.50;99.90